Ashby, Minnesota
Current Conditions -  °F | °C
As of 2:34 AM on Friday 19 Dec 2014 (Local Time) from KY63 Reporting Station
Overcast Overcast  
Wind Chill: -13°   Ceiling: 1000
Heat Index: -6°   Visibility: 7mi
Dew Point: -7°   Wind: 13mph
Humidity: 93%   Direction: 150°SSE
Pressure: 30.16"   Gusts: NA
Location:  46.09°N, 95.82°W
Report Text: KY63 190834Z AUTO 15011KT 7SM OVC010 M06/M07 A3016 RMK AO2 T10611070
Loading
Personal Weather Stations






























Interactive Weather Map New forecast layout! Learn more

10-Day Weather Forecast

Advertisements
Track Severe Weather on mobile